createdAt,value
2019-06-07T00:02:51.566Z,60.35
2019-06-07T00:07:47.493Z,60.41
2019-06-07T00:12:43.411Z,60.43
2019-06-07T00:17:39.335Z,60.17
2019-06-07T00:22:35.244Z,60.52
2019-06-07T00:27:31.166Z,60.52
2019-06-07T00:32:27.110Z,60.76
2019-06-07T00:37:25.304Z,60.69
2019-06-07T00:42:23.737Z,60.87
2019-06-07T00:47:23.029Z,61.00
2019-06-07T00:53:07.641Z,61.13
2019-06-07T00:57:16.669Z,60.92
2019-06-07T01:02:14.605Z,61.02
2019-06-07T01:07:10.213Z,61.17
2019-06-07T01:12:06.131Z,60.54
2019-06-07T01:17:27.979Z,60.85
2019-06-07T01:22:16.440Z,61.06
2019-06-07T01:27:13.224Z,61.14
2019-06-07T01:32:09.148Z,60.71
2019-06-07T01:37:05.064Z,61.13
2019-06-07T01:42:01.031Z,61.25
2019-06-07T01:46:56.950Z,61.48
2019-06-07T01:51:53.830Z,61.17
2019-06-07T01:56:49.757Z,60.99
2019-06-07T02:01:45.674Z,60.93
2019-06-07T02:06:41.695Z,61.32
2019-06-07T02:11:37.657Z,61.35
2019-06-07T02:16:33.571Z,61.64
2019-06-07T02:21:33.442Z,61.98
2019-06-07T02:26:30.790Z,62.21
2019-06-07T02:31:27.796Z,62.35
2019-06-07T02:36:28.842Z,62.51
2019-06-07T02:41:25.774Z,62.58
2019-06-07T02:46:30.438Z,62.64
2019-06-07T02:51:23.687Z,62.74
2019-06-07T02:56:46.439Z,62.79
2019-06-07T03:01:17.597Z,62.88
2019-06-07T03:06:14.111Z,62.92
2019-06-07T03:11:11.217Z,62.95
2019-06-07T03:16:09.254Z,62.97
2019-06-07T03:21:07.568Z,62.95
2019-06-07T03:26:03.834Z,63.00
2019-06-07T03:31:02.594Z,62.83
2019-06-07T03:35:57.701Z,62.88
2019-06-07T03:40:53.676Z,62.90
2019-06-07T03:45:49.596Z,62.87
2019-06-07T03:50:45.572Z,62.76
2019-06-07T03:55:41.613Z,62.75
2019-06-07T04:00:42.715Z,62.68
2019-06-07T04:05:40.250Z,62.53
2019-06-07T04:10:53.417Z,62.57
2019-06-07T04:15:33.825Z,62.48
2019-06-07T04:20:32.527Z,62.14
2019-06-07T04:25:29.061Z,61.91
2019-06-07T04:30:43.711Z,61.90
2019-06-07T04:35:42.917Z,61.90
2019-06-07T04:40:42.545Z,61.27
2019-06-07T04:45:45.769Z,60.72
2019-06-07T04:50:40.439Z,60.47
2019-06-07T04:55:36.616Z,60.67
2019-06-07T05:00:49.827Z,60.34
2019-06-07T05:05:34.460Z,59.61
2019-06-07T05:10:35.702Z,58.83
2019-06-07T05:15:29.580Z,58.65
2019-06-07T05:20:25.517Z,57.78
2019-06-07T05:25:21.472Z,57.56
2019-06-07T05:35:30.699Z,53.45
2019-06-07T05:40:33.021Z,52.01
2019-06-07T05:45:38.142Z,50.15
2019-06-07T05:50:43.964Z,48.87
2019-06-07T05:55:30.787Z,48.00
2019-06-07T06:00:26.798Z,47.42
2019-06-07T06:05:33.205Z,46.27
2019-06-07T06:10:20.535Z,45.30
2019-06-07T06:15:16.748Z,43.07
2019-06-07T06:20:13.983Z,43.07
2019-06-07T06:25:31.760Z,42.56
2019-06-07T06:30:09.766Z,41.33
2019-06-07T06:35:06.591Z,41.80
2019-06-07T06:40:04.506Z,41.36
2019-06-07T06:45:00.424Z,40.91
2019-06-07T06:49:56.345Z,40.60
2019-06-07T06:55:00.071Z,40.85
2019-06-07T06:59:52.542Z,40.42
2019-06-07T07:04:48.762Z,39.81
2019-06-07T07:09:51.086Z,39.28
2019-06-07T07:14:47.038Z,38.38
2019-06-07T07:19:46.569Z,38.48
2019-06-07T07:24:40.263Z,39.23
2019-06-07T07:29:36.175Z,38.96
2019-06-07T07:34:36.647Z,39.13
2019-06-07T07:39:30.585Z,37.83
2019-06-07T07:44:26.572Z,38.40
2019-06-07T07:49:22.488Z,38.88
2019-06-07T07:54:18.404Z,38.07
2019-06-07T07:59:14.326Z,36.62
2019-06-07T08:04:10.245Z,37.00
2019-06-07T08:09:09.482Z,35.35
2019-06-07T08:14:05.383Z,36.12
2019-06-07T08:19:04.193Z,36.60
2019-06-07T08:24:03.575Z,37.14
2019-06-07T08:28:59.746Z,36.83
2019-06-07T08:33:57.037Z,36.51
2019-06-07T08:39:07.307Z,36.86
2019-06-07T08:44:00.724Z,36.35
2019-06-07T08:49:01.410Z,36.00
2019-06-07T08:54:20.578Z,35.99
2019-06-07T08:58:54.981Z,35.99
2019-06-07T09:03:49.743Z,35.27
2019-06-07T09:08:51.934Z,35.20
2019-06-07T09:13:49.444Z,35.08
2019-06-07T09:18:45.618Z,34.26
2019-06-07T09:23:41.737Z,33.69
2019-06-07T09:28:37.672Z,34.14
2019-06-07T09:33:33.570Z,33.53
2019-06-07T09:38:29.766Z,33.36
2019-06-07T09:49:09.225Z,32.95
2019-06-07T09:53:23.315Z,31.79
2019-06-07T10:03:22.105Z,32.34
2019-06-07T10:09:15.082Z,32.03
2019-06-07T10:13:12.809Z,32.19
2019-06-07T10:18:09.274Z,31.45
2019-06-07T10:23:05.786Z,32.46
2019-06-07T10:28:01.922Z,32.20
2019-06-07T10:32:57.805Z,31.50
2019-06-07T10:37:53.755Z,31.52
2019-06-07T10:42:49.741Z,31.55
2019-06-07T10:47:45.728Z,32.01
2019-06-07T10:52:41.772Z,31.43
2019-06-07T10:57:37.693Z,32.10
2019-06-07T11:02:33.636Z,32.25
2019-06-07T11:07:29.535Z,31.43
2019-06-07T11:12:25.451Z,31.74
2019-06-07T11:17:21.496Z,31.49
2019-06-07T11:22:18.586Z,30.80
2019-06-07T11:27:16.353Z,30.41
2019-06-07T11:32:12.629Z,30.68
2019-06-07T11:37:09.469Z,30.67
2019-06-07T11:42:07.782Z,30.16
2019-06-07T11:47:04.017Z,30.10
2019-06-07T11:51:59.959Z,30.11
2019-06-07T11:56:55.886Z,29.13
2019-06-07T12:01:51.805Z,29.43
2019-06-07T12:06:47.823Z,30.52
2019-06-07T12:11:43.859Z,29.12
2019-06-07T12:16:40.832Z,29.02
2019-06-07T12:21:36.755Z,29.34
2019-06-07T12:26:34.250Z,29.12
2019-06-07T12:31:30.275Z,28.71
2019-06-07T12:36:26.205Z,29.21
2019-06-07T12:41:22.433Z,28.18
2019-06-07T12:46:23.101Z,28.45
2019-06-07T12:51:17.217Z,28.80
2019-06-07T12:56:13.549Z,27.76
2019-06-07T13:01:09.561Z,27.97
2019-06-07T13:06:05.481Z,28.31
2019-06-07T13:11:15.694Z,27.66
2019-06-07T13:15:59.232Z,27.53
2019-06-07T13:20:55.734Z,26.90
2019-06-07T13:25:51.778Z,26.27
2019-06-07T13:30:47.692Z,26.33
2019-06-07T13:35:43.817Z,27.21
2019-06-07T13:40:39.812Z,26.78
2019-06-07T13:45:35.737Z,26.78
2019-06-07T13:50:31.697Z,26.22
2019-06-07T13:55:28.023Z,25.68
2019-06-07T14:00:24.877Z,26.05
2019-06-07T14:05:21.050Z,26.94
2019-06-07T14:10:17.096Z,25.88
2019-06-07T14:15:13.117Z,26.58
2019-06-07T14:20:10.700Z,25.70
2019-06-07T14:25:07.874Z,26.19
2019-06-07T14:30:06.207Z,25.23
2019-06-07T14:35:03.895Z,25.52
2019-06-07T14:39:59.930Z,25.48
2019-06-07T14:44:55.856Z,25.35
2019-06-07T14:49:51.782Z,25.26
2019-06-07T14:54:47.711Z,26.20
2019-06-07T14:59:43.632Z,25.01
2019-06-07T15:04:41.898Z,25.81
2019-06-07T15:09:39.378Z,25.44
2019-06-07T15:14:37.521Z,26.17
2019-06-07T15:19:36.408Z,25.22
2019-06-07T15:24:38.932Z,25.55
2019-06-07T15:29:36.307Z,24.48
2019-06-07T15:34:34.326Z,24.81
2019-06-07T15:39:32.555Z,24.62
2019-06-07T15:44:29.375Z,24.33
2019-06-07T15:49:26.447Z,25.79
2019-06-07T15:54:23.149Z,26.40
2019-06-07T15:59:19.178Z,26.40
2019-06-07T16:04:15.203Z,25.53
2019-06-07T16:09:12.017Z,26.55
2019-06-07T16:14:08.013Z,26.92
2019-06-07T16:19:06.512Z,26.79
2019-06-07T16:24:02.762Z,27.28
2019-06-07T16:28:58.657Z,28.23
2019-06-07T16:33:54.580Z,29.26
2019-06-07T16:38:51.210Z,29.61
2019-06-07T16:43:47.171Z,29.87
2019-06-07T16:48:44.942Z,30.27
2019-06-07T16:53:42.353Z,29.54
2019-06-07T16:58:38.476Z,26.08
2019-06-07T17:03:34.404Z,24.70
2019-06-07T17:08:30.327Z,23.64
2019-06-07T17:13:33.428Z,23.52
2019-06-07T17:18:24.069Z,23.27
2019-06-07T17:23:19.993Z,23.89
2019-06-07T17:28:16.043Z,26.53
2019-06-07T17:33:12.040Z,28.69
2019-06-07T17:38:07.970Z,30.29
2019-06-07T17:43:03.891Z,30.97
2019-06-07T17:47:59.813Z,31.29
2019-06-07T17:53:02.833Z,31.63
2019-06-07T17:57:58.911Z,31.98
2019-06-07T18:02:54.832Z,32.41
2019-06-07T18:07:51.854Z,32.95
2019-06-07T18:12:48.151Z,34.74
2019-06-07T18:17:44.539Z,37.01
2019-06-07T18:22:41.193Z,40.81
2019-06-07T18:27:37.123Z,49.91
2019-06-07T18:32:33.048Z,55.49
2019-06-07T18:37:29.002Z,57.54
2019-06-07T18:42:24.933Z,58.00
2019-06-07T18:47:20.854Z,58.00
2019-06-07T18:52:18.719Z,57.17
2019-06-07T18:57:15.439Z,56.62
2019-06-07T19:02:11.577Z,54.42
2019-06-07T19:07:11.235Z,54.56
2019-06-07T19:12:07.989Z,54.36
2019-06-07T19:17:04.925Z,55.15
2019-06-07T19:22:02.929Z,54.90
2019-06-07T19:27:03.606Z,53.68
2019-06-07T19:32:01.655Z,52.54
2019-06-07T19:37:02.009Z,52.98
2019-06-07T19:42:02.515Z,52.83
2019-06-07T19:47:00.493Z,52.10
2019-06-07T19:51:59.119Z,52.41
2019-06-07T19:56:55.739Z,51.06
2019-06-07T20:01:53.601Z,51.37
2019-06-07T20:06:50.532Z,51.41
2019-06-07T20:11:46.563Z,51.49
2019-06-07T20:16:42.489Z,52.16
2019-06-07T20:21:38.415Z,52.10
2019-06-07T20:26:34.438Z,51.73
2019-06-07T20:31:31.145Z,52.46
2019-06-07T20:36:27.078Z,53.02
2019-06-07T20:41:23.000Z,53.82
2019-06-07T20:46:18.950Z,53.93
2019-06-07T20:51:15.017Z,54.40
2019-06-07T20:56:10.978Z,54.18
2019-06-07T21:01:07.023Z,54.20
2019-06-07T21:06:05.451Z,53.81
2019-06-07T21:11:01.620Z,52.74
2019-06-07T21:15:57.843Z,53.00
2019-06-07T21:20:53.927Z,52.86
2019-06-07T21:25:50.107Z,52.28
2019-06-07T21:30:46.221Z,51.66
2019-06-07T21:35:42.243Z,51.87
2019-06-07T21:40:38.170Z,51.52
2019-06-07T21:45:34.131Z,51.47
2019-06-07T21:50:30.260Z,51.00
2019-06-07T21:55:26.206Z,51.12
2019-06-07T22:00:42.930Z,51.11
2019-06-07T22:05:38.848Z,50.79
2019-06-07T22:10:34.801Z,49.72
2019-06-07T22:15:35.385Z,50.03
2019-06-07T22:20:28.669Z,49.89
2019-06-07T22:25:24.756Z,49.84
2019-06-07T22:30:20.832Z,49.39
2019-06-07T22:35:16.766Z,49.13
2019-06-07T22:40:12.964Z,48.41
2019-06-07T22:45:10.858Z,48.06
2019-06-07T22:50:08.753Z,48.23
2019-06-07T22:55:07.707Z,47.68
2019-06-07T23:00:10.431Z,47.45
2019-06-07T23:05:04.848Z,47.24
2019-06-07T23:10:01.584Z,47.17
2019-06-07T23:14:57.529Z,46.57
2019-06-07T23:19:53.458Z,46.70
2019-06-07T23:24:49.389Z,46.03
2019-06-07T23:29:45.311Z,45.47
2019-06-07T23:34:41.234Z,45.53
2019-06-07T23:39:37.663Z,44.83
2019-06-07T23:44:34.099Z,44.90
2019-06-07T23:49:30.120Z,44.93
2019-06-07T23:54:26.051Z,44.87
2019-06-07T23:59:22.390Z,45.01
